Time;durP1;ratioP1;P1;durP2;ratioP2;P2;SDS_P1;SDS_P2;PMS_P1;PMS_P2;Temp;Humidity;BMP_temperature;BMP_pressure;BME280_temperature;BME280_humidity;BME280_pressure;Samples;Min_cycle;Max_cycle;Signal;HPM_P1;HPM_P2
2023/06/15 00:00:33;;;;;;;2.55;1.60;;;15.40;99.90;;;;;;5071300;28;20044;-80
2023/06/15 00:02:58;;;;;;;6.53;2.30;;;15.40;99.90;;;;;;5066536;28;20040;-79
2023/06/15 00:05:25;;;;;;;2.88;1.70;;;15.30;99.90;;;;;;5065125;28;20048;-80
2023/06/15 00:07:51;;;;;;;6.00;1.92;;;15.30;99.90;;;;;;5069976;28;20037;-80
2023/06/15 00:10:17;;;;;;;6.75;2.13;;;15.30;99.90;;;;;;5069557;28;20375;-80
2023/06/15 00:12:43;;;;;;;8.05;2.95;;;15.20;99.90;;;;;;5066344;28;20142;-80
2023/06/15 00:15:09;;;;;;;7.38;1.83;;;15.20;99.90;;;;;;5066275;28;20130;-80
2023/06/15 00:17:37;;;;;;;3.63;2.00;;;15.20;99.90;;;;;;5067141;28;20042;-79
2023/06/15 00:20:07;;;;;;;6.00;1.80;;;15.20;99.90;;;;;;5067876;28;20039;-80
2023/06/15 00:22:34;;;;;;;6.15;1.80;;;15.20;99.90;;;;;;5066771;28;20664;-80
2023/06/15 00:25:00;;;;;;;7.03;2.00;;;15.10;99.90;;;;;;5067396;28;20509;-79
2023/06/15 00:27:25;;;;;;;3.65;2.03;;;15.10;99.90;;;;;;5067622;28;20036;-79
2023/06/15 00:29:51;;;;;;;5.63;1.83;;;15.10;99.90;;;;;;5071729;28;20028;-79
2023/06/15 00:32:17;;;;;;;4.82;2.05;;;15.10;99.90;;;;;;5070062;28;20593;-79
2023/06/15 00:34:42;;;;;;;11.32;2.50;;;15.10;99.90;;;;;;5068632;28;20045;-80
2023/06/15 00:37:08;;;;;;;7.68;2.17;;;15.10;99.90;;;;;;5068902;28;20107;-79
2023/06/15 00:39:33;;;;;;;3.05;1.50;;;15.00;99.90;;;;;;5069156;28;20037;-79
2023/06/15 00:42:01;;;;;;;10.27;2.42;;;14.90;99.90;;;;;;5070223;28;20050;-79
2023/06/15 00:44:26;;;;;;;5.40;1.70;;;14.90;99.90;;;;;;5065705;28;20800;-80
2023/06/15 00:46:52;;;;;;;7.30;1.90;;;14.90;99.90;;;;;;5068616;28;20037;-80
2023/06/15 00:49:21;;;;;;;3.47;1.98;;;14.90;99.90;;;;;;5095131;28;20055;-80
2023/06/15 00:51:47;;;;;;;3.95;1.80;;;14.80;99.90;;;;;;5074166;28;20052;-80
2023/06/15 00:54:14;;;;;;;5.95;2.00;;;14.80;99.90;;;;;;5070294;28;20045;-80
2023/06/15 00:56:40;;;;;;;6.97;2.13;;;14.80;99.90;;;;;;5070450;28;20132;-80
2023/06/15 00:59:06;;;;;;;5.20;2.50;;;14.70;99.90;;;;;;5066087;28;20202;-80
2023/06/15 01:01:31;;;;;;;3.97;2.35;;;14.70;99.90;;;;;;5069067;28;20094;-80
2023/06/15 01:03:59;;;;;;;8.02;2.42;;;14.70;99.90;;;;;;5070541;28;20428;-80
2023/06/15 01:06:31;;;;;;;2.55;1.85;;;14.70;99.90;;;;;;5067071;28;20082;-80
2023/06/15 01:09:01;;;;;;;5.80;2.35;;;14.60;99.90;;;;;;5066824;28;20048;-80
2023/06/15 01:11:29;;;;;;;5.13;1.98;;;14.60;99.90;;;;;;5069514;28;20029;-80
2023/06/15 01:13:56;;;;;;;8.70;2.15;;;14.60;99.90;;;;;;5069018;28;20041;-80
2023/06/15 01:16:27;;;;;;;3.28;2.17;;;14.60;99.90;;;;;;5064610;28;20135;-79
2023/06/15 01:18:57;;;;;;;3.88;2.05;;;14.50;99.90;;;;;;5065065;28;20036;-80
2023/06/15 01:21:32;;;;;;;5.90;2.95;;;14.50;99.90;;;;;;5068480;28;20090;-79
2023/06/15 01:24:07;;;;;;;2.80;2.28;;;14.50;99.90;;;;;;5067473;28;20131;-79
2023/06/15 01:26:34;;;;;;;5.80;2.43;;;14.40;99.90;;;;;;5064945;28;20414;-79
2023/06/15 01:29:00;;;;;;;5.97;2.17;;;14.50;99.90;;;;;;5054176;28;20320;-79
2023/06/15 01:31:27;;;;;;;2.70;2.05;;;14.40;99.90;;;;;;5068042;28;20041;-79
2023/06/15 01:33:52;;;;;;;6.18;2.72;;;14.40;99.90;;;;;;5064661;28;20067;-79
2023/06/15 01:36:19;;;;;;;9.80;3.25;;;14.40;99.90;;;;;;5063717;28;20479;-79
2023/06/15 01:38:50;;;;;;;9.18;3.05;;;14.40;99.90;;;;;;5065063;28;20033;-79
2023/06/15 01:41:17;;;;;;;7.32;3.50;;;14.30;99.90;;;;;;5071390;28;20048;-79
2023/06/15 01:43:43;;;;;;;4.75;2.33;;;14.40;99.90;;;;;;5068290;28;20059;-79
2023/06/15 01:46:09;;;;;;;4.88;2.10;;;14.30;99.90;;;;;;5063585;28;20044;-80
2023/06/15 01:48:34;;;;;;;3.65;2.30;;;14.30;99.90;;;;;;5065059;28;20067;-80
2023/06/15 01:51:02;;;;;;;4.07;3.03;;;14.30;99.90;;;;;;5098918;28;20498;-80
2023/06/15 01:53:28;;;;;;;6.35;2.20;;;14.30;99.90;;;;;;5063821;28;20036;-80
2023/06/15 01:55:55;;;;;;;6.68;2.78;;;14.30;99.90;;;;;;5064064;28;20509;-80
2023/06/15 01:58:20;;;;;;;7.22;3.00;;;14.30;99.90;;;;;;5069006;28;20040;-80
2023/06/15 02:00:46;;;;;;;5.25;2.90;;;14.20;99.90;;;;;;5066623;28;20039;-80
2023/06/15 02:03:12;;;;;;;5.13;2.78;;;14.20;99.90;;;;;;5064587;28;20044;-80
2023/06/15 02:05:40;;;;;;;4.78;2.28;;;14.20;99.90;;;;;;5062286;28;20041;-79
2023/06/15 02:08:07;;;;;;;6.00;2.80;;;14.20;99.90;;;;;;5068857;28;20044;-79
2023/06/15 02:10:32;;;;;;;6.32;2.58;;;14.20;99.90;;;;;;5094952;28;20048;-80
2023/06/15 02:12:58;;;;;;;7.90;3.50;;;14.20;99.90;;;;;;5063689;28;20040;-80
2023/06/15 02:15:23;;;;;;;7.20;2.45;;;14.10;99.90;;;;;;5064896;28;20045;-79
2023/06/15 02:17:51;;;;;;;7.00;2.70;;;14.10;99.90;;;;;;5069628;28;20071;-80
2023/06/15 02:20:16;;;;;;;6.90;2.95;;;14.10;99.90;;;;;;5064866;28;20106;-80
2023/06/15 02:22:42;;;;;;;3.78;2.55;;;14.00;99.90;;;;;;5062890;28;20048;-79
2023/06/15 02:25:08;;;;;;;6.40;2.60;;;14.10;99.90;;;;;;5068322;28;20041;-80
2023/06/15 02:27:34;;;;;;;5.50;3.00;;;14.10;99.90;;;;;;5065884;28;20140;-79
2023/06/15 02:30:00;;;;;;;5.82;3.15;;;14.10;99.90;;;;;;5065729;28;20037;-79
2023/06/15 02:32:31;;;;;;;6.75;2.67;;;14.00;99.90;;;;;;5064615;28;20510;-79
2023/06/15 02:34:58;;;;;;;5.85;2.65;;;14.10;99.90;;;;;;5096452;28;20043;-79
2023/06/15 02:37:24;;;;;;;5.00;2.80;;;14.10;99.90;;;;;;5065460;28;20112;-79
2023/06/15 02:39:49;;;;;;;7.45;3.53;;;14.00;99.90;;;;;;5065218;28;20115;-79
2023/06/15 02:42:15;;;;;;;5.68;3.15;;;14.00;99.90;;;;;;5067570;28;20047;-79
2023/06/15 02:44:41;;;;;;;4.10;2.92;;;14.00;99.90;;;;;;5066315;28;20049;-79
2023/06/15 02:47:06;;;;;;;12.30;4.25;;;14.00;99.90;;;;;;5063717;28;20167;-80
2023/06/15 02:49:32;;;;;;;9.55;3.72;;;14.00;99.90;;;;;;5064578;28;20135;-79
2023/06/15 02:51:57;;;;;;;8.45;3.15;;;14.00;99.90;;;;;;5060952;28;20523;-79
2023/06/15 02:54:23;;;;;;;5.10;2.63;;;14.00;99.90;;;;;;5065346;28;20047;-79
2023/06/15 02:56:51;;;;;;;6.75;3.42;;;14.00;99.90;;;;;;5062057;28;20123;-79
2023/06/15 02:59:17;;;;;;;4.35;2.97;;;14.00;99.90;;;;;;5065376;28;20040;-79
2023/06/15 03:01:43;;;;;;;7.70;4.03;;;13.90;99.90;;;;;;5059546;28;21825;-79
2023/06/15 03:04:09;;;;;;;8.05;3.03;;;13.90;99.90;;;;;;5062584;28;20044;-79
2023/06/15 03:06:36;;;;;;;7.15;3.28;;;13.90;99.90;;;;;;5069220;28;20032;-79
2023/06/15 03:09:03;;;;;;;9.65;3.67;;;13.90;99.90;;;;;;5064971;28;20119;-79
2023/06/15 03:11:28;;;;;;;7.68;3.58;;;13.90;99.90;;;;;;5069260;28;20502;-80
2023/06/15 03:13:54;;;;;;;8.38;3.83;;;13.90;99.90;;;;;;5065359;28;20132;-80
2023/06/15 03:16:20;;;;;;;7.65;3.38;;;13.90;99.90;;;;;;5068535;28;20040;-80
2023/06/15 03:18:46;;;;;;;5.53;3.78;;;13.90;99.90;;;;;;5063164;28;20042;-79
2023/06/15 03:21:12;;;;;;;7.32;3.88;;;13.90;99.90;;;;;;5063344;28;20043;-80
2023/06/15 03:23:40;;;;;;;12.85;3.95;;;13.90;99.90;;;;;;5064681;28;20714;-80
2023/06/15 03:26:06;;;;;;;6.60;3.75;;;13.80;99.90;;;;;;5095748;28;20094;-80
2023/06/15 03:28:37;;;;;;;7.60;3.60;;;13.80;99.90;;;;;;5063997;28;20110;-79
2023/06/15 03:31:04;;;;;;;5.22;3.42;;;13.80;99.90;;;;;;5063039;28;20119;-80
2023/06/15 03:33:33;;;;;;;6.75;3.53;;;13.80;99.90;;;;;;5064638;28;20048;-80
2023/06/15 03:36:01;;;;;;;6.40;4.00;;;13.90;99.90;;;;;;5052225;28;20123;-80
2023/06/15 03:38:26;;;;;;;4.28;3.85;;;13.90;99.90;;;;;;5065089;28;20518;-80
2023/06/15 03:40:52;;;;;;;9.23;4.35;;;14.00;99.90;;;;;;5062304;28;20040;-80
2023/06/15 03:43:18;;;;;;;8.13;4.40;;;13.90;99.90;;;;;;5070648;28;20047;-80
2023/06/15 03:45:43;;;;;;;7.43;3.42;;;13.90;99.90;;;;;;5065933;28;20049;-80
2023/06/15 03:48:09;;;;;;;11.13;4.32;;;14.00;99.90;;;;;;5062292;28;20052;-79
2023/06/15 03:50:34;;;;;;;8.05;3.90;;;14.00;99.90;;;;;;5062820;28;20044;-80
2023/06/15 03:53:01;;;;;;;9.40;4.28;;;13.90;99.90;;;;;;5064989;28;20094;-80
2023/06/15 03:55:27;;;;;;;7.72;4.68;;;14.00;99.90;;;;;;5065404;28;20060;-79
2023/06/15 03:57:52;;;;;;;8.57;5.50;;;14.00;99.90;;;;;;5064845;28;20079;-80
2023/06/15 04:00:18;;;;;;;6.63;4.18;;;14.00;99.90;;;;;;5067425;28;20523;-80
2023/06/15 04:02:44;;;;;;;8.07;4.68;;;14.10;99.90;;;;;;5059619;28;20056;-80
2023/06/15 04:05:10;;;;;;;9.38;4.45;;;13.60;99.90;;;;;;5069608;28;20538;-80
2023/06/15 04:07:36;;;;;;;7.18;4.88;;;14.30;99.90;;;;;;5064699;28;20044;-79
2023/06/15 04:10:03;;;;;;;11.80;5.63;;;14.50;99.90;;;;;;5065832;28;20064;-81
2023/06/15 04:12:29;;;;;;;13.02;4.72;;;14.70;99.90;;;;;;5065861;28;20044;-82
2023/06/15 04:14:54;;;;;;;11.13;5.20;;;14.70;99.90;;;;;;5070910;28;20048;-81
2023/06/15 04:17:20;;;;;;;5.82;4.65;;;14.80;99.90;;;;;;5065287;28;20025;-81
2023/06/15 04:19:46;;;;;;;6.18;4.47;;;14.90;99.90;;;;;;5066476;28;20089;-82
2023/06/15 04:22:11;;;;;;;8.73;4.10;;;14.90;99.90;;;;;;5062182;28;20064;-81
2023/06/15 04:24:37;;;;;;;8.70;4.80;;;15.00;99.90;;;;;;5063312;28;20475;-82
2023/06/15 04:27:04;;;;;;;7.15;5.10;;;15.00;99.90;;;;;;5063446;28;20130;-80
2023/06/15 04:29:30;;;;;;;9.48;4.80;;;15.30;99.90;;;;;;5058383;28;20045;-79
2023/06/15 04:31:59;;;;;;;7.32;4.68;;;15.70;99.90;;;;;;5060503;28;20041;-79
2023/06/15 04:34:26;;;;;;;8.68;3.88;;;16.50;99.90;;;;;;5063137;28;20048;-80
2023/06/15 04:36:52;;;;;;;6.30;3.80;;;17.60;99.90;;;;;;5062433;28;20690;-79
2023/06/15 04:39:18;;;;;;;8.05;4.32;;;18.50;99.90;;;;;;5063239;28;20045;-79
2023/06/15 04:41:44;;;;;;;5.75;4.00;;;19.00;99.90;;;;;;5064538;28;20119;-79
2023/06/15 04:44:10;;;;;;;7.97;3.85;;;19.30;99.90;;;;;;5060719;28;20104;-78
2023/06/15 04:46:38;;;;;;;7.00;4.38;;;19.80;99.90;;;;;;5062614;28;20397;-78
2023/06/15 04:49:03;;;;;;;12.68;3.40;;;20.60;99.90;;;;;;5067717;28;20047;-79
2023/06/15 04:51:30;;;;;;;9.77;3.65;;;21.30;99.90;;;;;;5069119;28;20036;-81
2023/06/15 04:53:56;;;;;;;8.98;2.85;;;22.00;99.90;;;;;;5073594;28;20040;-80
2023/06/15 04:56:22;;;;;;;6.15;3.35;;;22.70;99.90;;;;;;5070184;28;20033;-79
2023/06/15 04:58:48;;;;;;;7.30;2.95;;;23.10;99.90;;;;;;5067881;28;20040;-79
2023/06/15 05:01:14;;;;;;;4.82;2.95;;;23.60;99.90;;;;;;5063634;28;20037;-79
2023/06/15 05:03:40;;;;;;;4.80;3.05;;;23.90;99.50;;;;;;5070723;28;20510;-80
2023/06/15 05:06:07;;;;;;;6.78;3.70;;;23.90;98.70;;;;;;5067888;28;20045;-79
2023/06/15 05:08:33;;;;;;;7.13;3.28;;;24.10;98.30;;;;;;5066188;28;20658;-80
2023/06/15 05:10:59;;;;;;;6.40;3.30;;;24.20;97.70;;;;;;5069129;28;20040;-79
2023/06/15 05:13:25;;;;;;;6.82;2.92;;;23.90;97.50;;;;;;5066767;28;20053;-80
2023/06/15 05:15:51;;;;;;;6.85;2.85;;;22.80;97.50;;;;;;5065193;28;20051;-79
2023/06/15 05:18:17;;;;;;;5.55;3.25;;;22.40;97.90;;;;;;5068611;28;20116;-80
2023/06/15 05:20:42;;;;;;;6.18;2.70;;;22.80;97.80;;;;;;5095621;28;20513;-80
2023/06/15 05:23:08;;;;;;;4.90;2.53;;;23.10;97.50;;;;;;5067525;28;20160;-80
2023/06/15 05:25:34;;;;;;;6.05;2.03;;;22.90;97.10;;;;;;5070548;28;20131;-81
2023/06/15 05:27:59;;;;;;;9.65;2.33;;;22.50;97.30;;;;;;5066448;28;20132;-80
2023/06/15 05:30:26;;;;;;;2.75;1.90;;;22.30;97.50;;;;;;5065790;28;20040;-80
2023/06/15 05:32:53;;;;;;;9.77;2.15;;;22.00;97.40;;;;;;5074691;28;20044;-80
2023/06/15 05:35:18;;;;;;;6.68;2.20;;;21.90;97.60;;;;;;5069532;28;20123;-80
2023/06/15 05:37:44;;;;;;;4.90;1.80;;;21.90;97.80;;;;;;5069394;28;20119;-81
2023/06/15 05:40:11;;;;;;;4.53;1.98;;;22.00;97.50;;;;;;5071388;28;20036;-81
2023/06/15 05:42:36;;;;;;;4.13;1.98;;;21.90;97.30;;;;;;5067162;28;20048;-81
2023/06/15 05:45:02;;;;;;;2.13;1.50;;;22.00;97.30;;;;;;5068809;28;20036;-80
2023/06/15 05:47:28;;;;;;;4.72;1.52;;;22.10;96.70;;;;;;5068400;28;20031;-80
2023/06/15 05:49:53;;;;;;;5.15;2.00;;;22.10;96.30;;;;;;5065646;28;20036;-80
2023/06/15 05:52:19;;;;;;;8.10;1.95;;;22.20;95.30;;;;;;5070054;28;20044;-81
2023/06/15 05:54:45;;;;;;;8.93;1.90;;;22.20;95.20;;;;;;5070885;28;20168;-80
2023/06/15 05:57:11;;;;;;;8.48;1.83;;;22.30;94.60;;;;;;5066509;28;20664;-82
2023/06/15 05:59:37;;;;;;;7.25;2.30;;;22.40;94.50;;;;;;5063753;28;20926;-80
2023/06/15 06:02:04;;;;;;;5.40;1.75;;;22.50;94.20;;;;;;5066920;28;20048;-81
2023/06/15 06:04:29;;;;;;;4.18;1.48;;;22.60;94.00;;;;;;5062761;28;20049;-80
2023/06/15 06:06:55;;;;;;;3.83;1.80;;;22.70;94.30;;;;;;5068448;28;20039;-80
2023/06/15 06:09:20;;;;;;;4.38;1.63;;;22.80;94.60;;;;;;5065483;28;20024;-79
2023/06/15 06:11:47;;;;;;;3.88;1.50;;;23.00;94.10;;;;;;5067498;28;20326;-80
2023/06/15 06:14:16;;;;;;;6.95;2.25;;;22.90;93.80;;;;;;5065220;28;20056;-80
2023/06/15 06:16:42;;;;;;;3.85;1.60;;;23.10;93.70;;;;;;5062720;28;20040;-80
2023/06/15 06:19:08;;;;;;;7.82;1.60;;;23.40;93.30;;;;;;5066758;28;20070;-80
2023/06/15 06:21:34;;;;;;;6.70;1.70;;;23.20;93.10;;;;;;5063616;28;20056;-80
2023/06/15 06:23:59;;;;;;;4.20;1.60;;;23.30;92.90;;;;;;5064250;28;20033;-81
2023/06/15 06:26:25;;;;;;;3.33;1.48;;;23.30;93.10;;;;;;5060162;28;20040;-80
2023/06/15 06:28:52;;;;;;;4.25;1.45;;;23.60;92.70;;;;;;5065118;28;20151;-80
2023/06/15 06:31:17;;;;;;;5.38;1.42;;;23.60;92.80;;;;;;5069451;28;20048;-80
2023/06/15 06:33:43;;;;;;;2.45;1.65;;;23.70;92.10;;;;;;5061035;28;20044;-80
2023/06/15 06:36:09;;;;;;;3.90;1.60;;;23.80;91.60;;;;;;5064183;28;20032;-80
2023/06/15 06:38:36;;;;;;;5.65;1.73;;;23.90;91.90;;;;;;5062368;28;20484;-81
2023/06/15 06:41:01;;;;;;;4.43;1.52;;;24.00;92.00;;;;;;5063557;28;20069;-80
2023/06/15 06:43:27;;;;;;;3.15;1.80;;;24.10;92.20;;;;;;5058821;28;20064;-79
2023/06/15 06:45:53;;;;;;;3.70;1.75;;;24.20;91.90;;;;;;5062055;28;20037;-81
2023/06/15 06:48:18;;;;;;;6.88;1.67;;;24.20;91.80;;;;;;5066482;28;20465;-80
2023/06/15 06:50:44;;;;;;;6.80;1.80;;;24.30;91.80;;;;;;5064967;28;20044;-80
2023/06/15 06:53:11;;;;;;;9.88;2.42;;;24.70;91.20;;;;;;5062210;28;20045;-80
2023/06/15 06:55:36;;;;;;;7.90;1.70;;;24.50;91.30;;;;;;5065521;28;20086;-80
2023/06/15 06:58:02;;;;;;;3.20;1.70;;;24.50;91.20;;;;;;5061782;28;20048;-80
2023/06/15 07:00:31;;;;;;;9.60;1.63;;;24.70;91.20;;;;;;5062491;28;20120;-80
2023/06/15 07:02:57;;;;;;;6.97;1.30;;;24.80;90.30;;;;;;5062871;28;20094;-81
2023/06/15 07:05:23;;;;;;;3.63;1.67;;;24.80;90.10;;;;;;5063029;28;20162;-81
2023/06/15 07:07:49;;;;;;;2.72;1.42;;;24.90;88.20;;;;;;5094438;28;20052;-81
2023/06/15 07:10:15;;;;;;;4.07;1.70;;;24.90;88.20;;;;;;5062668;28;20040;-83
2023/06/15 07:12:40;;;;;;;7.50;1.55;;;24.90;88.30;;;;;;5063021;28;20037;-83
2023/06/15 07:15:07;;;;;;;6.93;1.75;;;25.00;88.50;;;;;;5060108;28;20044;-83
2023/06/15 07:17:32;;;;;;;5.10;1.75;;;25.00;89.30;;;;;;5062295;28;20048;-82
2023/06/15 07:19:58;;;;;;;4.03;1.70;;;25.20;90.00;;;;;;5059596;28;20033;-82
2023/06/15 07:22:24;;;;;;;5.65;1.35;;;25.20;89.00;;;;;;5062119;28;20388;-83
2023/06/15 07:24:51;;;;;;;6.32;1.35;;;25.30;87.30;;;;;;5061275;28;20052;-82
2023/06/15 07:27:18;;;;;;;16.83;2.63;;;25.30;87.40;;;;;;5060450;28;20499;-82
2023/06/15 07:29:47;;;;;;;3.78;1.83;;;25.40;87.20;;;;;;5061372;28;20268;-82
2023/06/15 07:32:13;;;;;;;7.13;1.65;;;25.40;89.00;;;;;;5061856;28;20111;-82
2023/06/15 07:34:39;;;;;;;8.35;1.65;;;25.80;87.70;;;;;;5062703;28;20198;-83
2023/06/15 07:37:06;;;;;;;5.32;1.90;;;25.60;87.20;;;;;;5058024;28;20046;-84
2023/06/15 07:39:31;;;;;;;5.30;1.73;;;25.60;84.80;;;;;;5059182;28;20044;-82
2023/06/15 07:41:57;;;;;;;7.82;1.83;;;25.50;84.50;;;;;;5058498;28;20483;-83
2023/06/15 07:44:23;;;;;;;9.57;2.50;;;25.60;86.20;;;;;;5074641;28;20040;-84
2023/06/15 07:46:48;;;;;;;4.85;1.27;;;25.60;83.90;;;;;;5061947;28;20036;-82
2023/06/15 07:49:14;;;;;;;5.63;1.50;;;25.60;85.30;;;;;;5060640;28;20044;-84
2023/06/15 07:51:40;;;;;;;3.63;1.52;;;25.60;83.90;;;;;;5060688;28;20179;-83
2023/06/15 07:54:06;;;;;;;3.38;1.60;;;25.80;84.20;;;;;;5060640;28;21969;-83
2023/06/15 07:56:31;;;;;;;2.70;1.27;;;25.80;84.10;;;;;;5061441;28;20040;-82
2023/06/15 07:58:57;;;;;;;5.38;1.45;;;25.70;82.70;;;;;;5060139;28;20115;-84
2023/06/15 08:01:23;;;;;;;5.30;1.67;;;25.60;83.80;;;;;;5062531;28;20095;-82
2023/06/15 08:03:48;;;;;;;6.53;1.63;;;25.60;82.80;;;;;;5061425;28;20670;-84
2023/06/15 08:06:14;;;;;;;8.45;1.58;;;25.80;83.50;;;;;;5060802;28;20040;-84
2023/06/15 08:08:40;;;;;;;7.65;1.48;;;25.70;83.20;;;;;;5045576;28;20036;-83
2023/06/15 08:11:06;;;;;;;5.70;2.10;;;25.90;83.50;;;;;;5065188;28;20547;-83
2023/06/15 08:13:32;;;;;;;2.67;1.10;;;26.00;81.80;;;;;;5063717;28;20045;-83
2023/06/15 08:15:58;;;;;;;3.65;1.25;;;25.90;81.20;;;;;;5065388;28;20043;-84
2023/06/15 08:18:25;;;;;;;5.28;1.70;;;26.00;80.30;;;;;;5062090;28;20483;-83
2023/06/15 08:20:52;;;;;;;4.80;1.63;;;25.90;80.40;;;;;;5064746;28;20048;-84
2023/06/15 08:23:17;;;;;;;4.72;1.30;;;25.80;80.20;;;;;;5064253;28;20483;-83
2023/06/15 08:25:43;;;;;;;4.32;1.70;;;25.80;79.90;;;;;;5067128;28;20037;-83
2023/06/15 08:28:09;;;;;;;6.00;1.38;;;25.80;78.90;;;;;;5066055;28;20513;-84
2023/06/15 08:30:35;;;;;;;2.22;1.00;;;25.90;79.30;;;;;;5065955;28;20036;-83
2023/06/15 08:33:00;;;;;;;5.97;2.13;;;25.70;80.70;;;;;;5064375;28;20052;-84
2023/06/15 08:35:26;;;;;;;3.28;1.65;;;25.80;79.20;;;;;;5046249;28;20040;-85
2023/06/15 08:37:52;;;;;;;1.83;1.60;;;26.00;77.00;;;;;;5075816;28;20145;-84
2023/06/15 08:40:19;;;;;;;5.85;1.48;;;25.90;76.50;;;;;;5059335;28;20615;-83
2023/06/15 08:42:45;;;;;;;5.78;1.92;;;26.00;75.30;;;;;;5060793;28;20503;-83
2023/06/15 08:45:11;;;;;;;3.25;1.75;;;25.90;74.30;;;;;;5061920;28;20078;-83
2023/06/15 08:47:38;;;;;;;3.63;1.52;;;25.90;74.80;;;;;;5061723;28;20577;-82
2023/06/15 08:50:05;;;;;;;4.63;1.30;;;25.90;75.00;;;;;;5063436;28;20533;-81
2023/06/15 08:52:34;;;;;;;3.85;1.50;;;26.00;77.10;;;;;;5063329;28;20063;-81
2023/06/15 08:55:02;;;;;;;7.95;2.13;;;26.00;74.70;;;;;;5060452;28;20053;-81
2023/06/15 08:57:28;;;;;;;7.43;1.88;;;26.00;75.00;;;;;;5063766;28;20039;-80
2023/06/15 08:59:55;;;;;;;6.97;1.77;;;26.20;76.10;;;;;;5066535;28;20048;-83
2023/06/15 09:02:23;;;;;;;7.80;1.63;;;26.00;76.70;;;;;;5065705;28;20498;-80
2023/06/15 09:04:52;;;;;;;6.43;1.85;;;25.80;74.60;;;;;;5069035;28;20044;-80
2023/06/15 09:07:19;;;;;;;5.50;2.08;;;25.90;75.20;;;;;;5063853;28;20044;-81
2023/06/15 09:10:10;;;;;;;6.05;1.45;;;25.90;72.30;;;;;;5065250;28;20044;-82
2023/06/15 09:12:58;;;;;;;3.08;1.30;;;26.00;71.60;;;;;;5069412;28;20111;-82
2023/06/15 09:15:28;;;;;;;5.70;1.60;;;26.10;72.80;;;;;;5064815;28;20044;-81
2023/06/15 09:17:59;;;;;;;2.30;1.60;;;26.10;73.70;;;;;;5067847;28;20093;-81
2023/06/15 09:20:28;;;;;;;7.35;1.67;;;26.20;70.50;;;;;;5080466;28;20047;-79
2023/06/15 09:23:02;;;;;;;4.75;1.30;;;26.20;67.90;;;;;;5065971;28;20095;-82
2023/06/15 09:25:30;;;;;;;8.10;1.40;;;26.40;69.80;;;;;;5063454;28;20035;-81
2023/06/15 09:27:57;;;;;;;3.67;1.38;;;26.40;68.70;;;;;;5063510;28;20051;-82
2023/06/15 09:30:39;;;;;;;4.10;1.67;;;26.60;72.50;;;;;;5063437;28;20036;-82
2023/06/15 09:33:17;;;;;;;6.00;2.25;;;26.40;73.00;;;;;;5047244;28;20044;-81
2023/06/15 09:36:00;;;;;;;3.05;1.98;;;26.50;74.20;;;;;;5077857;28;20037;-82
2023/06/15 09:38:55;;;;;;;3.00;1.80;;;26.30;74.10;;;;;;5061392;28;20139;-82
2023/06/15 09:41:20;;;;;;;3.28;1.80;;;26.10;72.70;;;;;;5062343;28;20683;-81
2023/06/15 09:43:46;;;;;;;7.30;2.03;;;26.20;73.10;;;;;;5058901;28;20045;-82
2023/06/15 09:46:15;;;;;;;2.97;1.80;;;26.00;73.30;;;;;;5062091;28;20097;-81
2023/06/15 09:48:43;;;;;;;5.00;1.40;;;26.10;72.50;;;;;;5061358;28;20151;-83
2023/06/15 09:51:08;;;;;;;4.72;1.60;;;26.20;73.10;;;;;;5064327;28;20406;-82
2023/06/15 09:53:34;;;;;;;4.45;2.00;;;26.20;73.00;;;;;;5060412;28;20056;-81
2023/06/15 09:56:00;;;;;;;2.20;1.33;;;26.20;73.00;;;;;;5059597;28;20075;-82
2023/06/15 09:58:27;;;;;;;3.72;1.85;;;26.30;73.70;;;;;;5061975;28;20048;-83
2023/06/15 10:00:57;;;;;;;7.82;1.48;;;26.40;74.60;;;;;;5064134;28;20036;-82
2023/06/15 10:03:25;;;;;;;3.35;1.52;;;26.40;73.60;;;;;;5058736;28;20401;-81
2023/06/15 10:05:58;;;;;;;3.13;1.50;;;26.40;73.60;;;;;;5061889;28;20043;-80
2023/06/15 10:08:25;;;;;;;1.77;1.42;;;26.40;74.00;;;;;;5073166;28;20051;-83
2023/06/15 10:10:54;;;;;;;4.95;1.67;;;26.30;72.40;;;;;;5063164;28;20047;-82
2023/06/15 10:13:29;;;;;;;2.80;1.48;;;26.20;71.10;;;;;;5062895;28;20047;-82
2023/06/15 10:15:59;;;;;;;4.40;1.60;;;26.30;71.60;;;;;;5059291;28;20044;-81
2023/06/15 10:18:26;;;;;;;6.40;1.88;;;26.40;69.20;;;;;;5062092;28;20051;-81
2023/06/15 10:20:54;;;;;;;7.75;2.20;;;26.40;71.10;;;;;;5060746;28;20037;-81
2023/06/15 10:23:25;;;;;;;3.58;1.80;;;26.40;68.60;;;;;;5093495;28;20471;-81
2023/06/15 10:25:55;;;;;;;3.08;1.75;;;26.30;67.70;;;;;;5061260;28;20052;-83
2023/06/15 10:28:23;;;;;;;4.05;1.55;;;26.40;68.20;;;;;;5059266;28;20048;-82
2023/06/15 10:31:12;;;;;;;6.20;1.30;;;26.20;67.20;;;;;;5091466;28;20266;-81
2023/06/15 10:34:04;;;;;;;5.60;1.83;;;26.30;67.10;;;;;;5059067;28;20073;-82
2023/06/15 10:36:37;;;;;;;2.83;1.40;;;26.50;70.60;;;;;;5065983;28;20044;-81
2023/06/15 10:39:13;;;;;;;2.75;1.77;;;26.50;68.50;;;;;;5066834;28;20090;-82
2023/06/15 10:41:38;;;;;;;3.38;2.05;;;26.40;68.50;;;;;;5081096;28;20058;-82
2023/06/15 10:44:07;;;;;;;4.50;2.80;;;26.40;70.70;;;;;;5065220;28;20069;-81
2023/06/15 10:46:35;;;;;;;4.40;1.48;;;26.40;69.80;;;;;;5090996;28;20490;-82
2023/06/15 10:49:05;;;;;;;2.00;1.38;;;26.50;72.10;;;;;;5067156;28;20042;-82
2023/06/15 10:51:35;;;;;;;2.92;1.77;;;26.60;72.60;;;;;;5065802;28;20542;-82
2023/06/15 10:54:05;;;;;;;2.63;1.77;;;26.70;72.20;;;;;;5064322;28;20045;-82
2023/06/15 10:56:31;;;;;;;2.47;1.30;;;26.80;67.20;;;;;;5067791;28;20537;-82
2023/06/15 10:59:01;;;;;;;3.50;1.70;;;26.70;65.50;;;;;;5067352;28;20040;-81
2023/06/15 11:01:29;;;;;;;2.88;1.55;;;26.70;69.10;;;;;;5100245;28;20037;-83
2023/06/15 11:03:56;;;;;;;8.57;1.67;;;26.80;69.20;;;;;;5095191;28;20048;-82
2023/06/15 11:06:33;;;;;;;2.28;1.52;;;26.70;69.10;;;;;;5056490;28;20043;-81
2023/06/15 11:09:07;;;;;;;8.18;1.52;;;26.60;65.90;;;;;;5062192;28;20036;-82
2023/06/15 11:11:37;;;;;;;6.05;1.90;;;26.60;65.70;;;;;;5060794;28;20052;-82
2023/06/15 11:14:19;;;;;;;3.05;1.67;;;26.60;65.80;;;;;;5064223;28;20037;-81
2023/06/15 11:16:46;;;;;;;3.15;1.85;;;26.60;65.60;;;;;;5064570;28;20475;-82
2023/06/15 11:19:11;;;;;;;2.88;1.63;;;26.60;65.40;;;;;;5063937;28;20028;-81
2023/06/15 11:21:47;;;;;;;3.60;1.38;;;26.70;68.40;;;;;;5063904;28;20036;-81
2023/06/15 11:24:15;;;;;;;3.63;1.33;;;26.40;66.30;;;;;;5061343;28;20051;-80
2023/06/15 11:26:42;;;;;;;2.53;1.30;;;26.40;65.40;;;;;;5062383;28;20041;-82
2023/06/15 11:29:09;;;;;;;4.18;1.65;;;26.60;66.30;;;;;;5061256;28;20399;-82
2023/06/15 11:31:35;;;;;;;2.08;1.70;;;26.60;64.20;;;;;;5095711;28;20049;-83
2023/06/15 11:34:01;;;;;;;2.45;1.67;;;26.50;64.30;;;;;;5062805;28;20036;-82
2023/06/15 11:36:27;;;;;;;2.97;1.63;;;26.40;66.80;;;;;;5048572;28;20040;-82
2023/06/15 11:38:53;;;;;;;4.35;1.77;;;26.40;67.90;;;;;;5064134;28;20048;-81
2023/06/15 11:41:20;;;;;;;9.98;1.92;;;26.50;67.80;;;;;;5058876;28;20391;-83
2023/06/15 11:43:48;;;;;;;2.58;1.67;;;26.60;67.80;;;;;;5059311;28;20055;-81
2023/06/15 11:46:22;;;;;;;4.53;1.65;;;26.80;66.80;;;;;;5062418;28;20056;-83
2023/06/15 11:48:53;;;;;;;4.35;1.40;;;27.00;66.40;;;;;;5065431;28;20048;-82
2023/06/15 11:51:20;;;;;;;8.52;1.95;;;27.00;66.00;;;;;;5062586;28;20052;-82
2023/06/15 11:53:46;;;;;;;2.22;1.20;;;27.10;66.50;;;;;;5094429;28;20057;-82
2023/06/15 11:56:14;;;;;;;3.35;1.92;;;27.20;65.90;;;;;;5064349;28;20048;-83
2023/06/15 11:58:41;;;;;;;4.68;1.55;;;27.10;65.70;;;;;;5064561;28;20044;-83
2023/06/15 12:01:07;;;;;;;3.08;1.73;;;27.00;63.70;;;;;;5064745;28;20032;-82
2023/06/15 12:03:37;;;;;;;3.35;1.60;;;27.10;65.70;;;;;;5064042;28;20053;-81
2023/06/15 12:06:03;;;;;;;4.57;1.67;;;26.90;64.30;;;;;;5063656;28;20083;-82
2023/06/15 12:08:30;;;;;;;3.25;1.67;;;26.90;65.40;;;;;;5063861;28;20077;-81
2023/06/15 12:10:56;;;;;;;2.83;1.70;;;26.90;67.00;;;;;;5063244;28;21258;-82
2023/06/15 12:13:23;;;;;;;3.70;1.38;;;26.90;66.70;;;;;;5063467;28;20047;-82
2023/06/15 12:15:50;;;;;;;3.80;1.77;;;27.20;66.40;;;;;;5061507;28;20044;-82
2023/06/15 12:18:17;;;;;;;4.68;2.00;;;27.00;63.40;;;;;;5061710;28;20044;-79
2023/06/15 12:20:44;;;;;;;3.97;1.88;;;27.00;64.80;;;;;;5063536;28;20037;-81
2023/06/15 12:23:09;;;;;;;2.20;1.27;;;26.90;65.40;;;;;;5065688;28;20054;-82
2023/06/15 12:25:42;;;;;;;2.92;1.95;;;26.90;63.80;;;;;;5064369;28;20112;-81
2023/06/15 12:28:17;;;;;;;10.35;1.98;;;27.10;64.50;;;;;;5062591;28;20438;-82
2023/06/15 12:30:48;;;;;;;6.88;2.20;;;27.20;65.40;;;;;;5061219;28;20048;-81
2023/06/15 12:33:25;;;;;;;2.47;1.60;;;27.10;66.30;;;;;;5060972;28;20044;-82
2023/06/15 12:35:52;;;;;;;2.90;2.10;;;27.20;67.10;;;;;;5061467;28;20090;-83
2023/06/15 12:38:19;;;;;;;3.67;2.08;;;27.20;66.00;;;;;;5062634;28;20036;-83
2023/06/15 12:40:44;;;;;;;3.03;1.70;;;27.20;66.70;;;;;;5094015;28;20079;-83
2023/06/15 12:43:10;;;;;;;3.33;1.90;;;27.40;66.50;;;;;;5061914;28;20125;-83
2023/06/15 12:45:36;;;;;;;10.05;2.05;;;27.20;66.70;;;;;;5060621;28;21691;-81